PWSweather.com
Personal Weather Stations
Station Observations
FAUSKE
Nordland, Norway, FauskeNO 8200

Nordland, NorwayFauskeNO 8200

Lat: 67.2607586, Lon: 15.4114204

Elevation: 40

Station Type: Davis Vantage PRO2

http://www.bjornli.net/weather.html

Latest ConditionsUpdated 8:40:03 AM GMT+01:01 Sunday, Feb 26, 2017
Currently Today's Max Today's Min Today's Average
Temperature 23.1°F-4.9°C 23.1°F-4.9°C 16.3°F-8.7°C 18.7°F-7.4°C
Dew Point 16.4°F-8.7°C 17.5°F-8.1°C 12.9°F-10.6°C 14.7°F-9.6°C
Winds Calm Calm 5.0 mph SE8.0 kmh SE - 0.6 mph 1.0 kmh
Wind Gusts -- 9.0 mph14.5 kmh - -
Humidity 75% 91% 75% 84%
Pressure 29.38 in994.9 mb 29.39 in995.3 mb 29.36 in994.2 mb -
Hour Temp Dew Point Humidity Winds Wind Gusts Pressure Precip Precip Rate Daily Precip Total
08:40 AM 23.1°F-4.9°C 16.4°F-8.7°C 75% Calm Calm -- 29.38 in994.9 mb 0.00 in0.0 mm 0.00 in0.0 mm 0.00 in0.0 mm
08:30 AM 22.5°F-5.3°C 15.8°F-9.0°C 75% Calm Calm -- 29.39 in995.3 mb 0.00 in0.0 mm 0.00 in0.0 mm 0.00 in0.0 mm
08:10 AM 20.8°F-6.2°C 14.4°F-9.8°C 76% 3.0 mph NNE4.8 kmh NNE 6.0 mph9.7 kmh 29.39 in995.3 mb 0.00 in0.0 mm 0.00 in0.0 mm 0.00 in0.0 mm
08:00 AM 20.3°F-6.5°C 14.3°F-9.8°C 77% 4.0 mph NE6.4 kmh NE 6.0 mph9.7 kmh 29.39 in995.3 mb 0.00 in0.0 mm 0.00 in0.0 mm 0.00 in0.0 mm
07:40 AM 21.0°F-6.1°C 14.9°F-9.5°C 77% Calm Calm 6.0 mph9.7 kmh 29.38 in994.9 mb 0.00 in0.0 mm 0.00 in0.0 mm 0.00 in0.0 mm
07:30 AM 21.4°F-5.9°C 15.0°F-9.4°C 76% 4.0 mph NNE6.4 kmh NNE 4.0 mph6.4 kmh 29.38 in994.9 mb 0.00 in0.0 mm 0.00 in0.0 mm 0.00 in0.0 mm
07:10 AM 21.6°F-5.8°C 14.9°F-9.5°C 75% Calm Calm 6.0 mph9.7 kmh 29.39 in995.3 mb 0.00 in0.0 mm 0.00 in0.0 mm 0.00 in0.0 mm
07:00 AM 20.9°F-6.2°C 14.5°F-9.7°C 76% 1.0 mph E1.6 kmh E 1.0 mph1.6 kmh 29.38 in994.9 mb 0.00 in0.0 mm 0.00 in0.0 mm 0.00 in0.0 mm
06:40 AM 20.2°F-6.6°C 14.7°F-9.6°C 79% 5.0 mph SE8.0 kmh SE 6.0 mph9.7 kmh 29.38 in994.9 mb 0.00 in0.0 mm 0.00 in0.0 mm 0.00 in0.0 mm
06:30 AM 20.3°F-6.5°C 14.8°F-9.6°C 79% Calm Calm -- 29.37 in994.6 mb 0.00 in0.0 mm 0.00 in0.0 mm 0.00 in0.0 mm
06:10 AM 18.9°F-7.3°C 14.6°F-9.7°C 83% 3.0 mph NE4.8 kmh NE 8.0 mph12.9 kmh 29.37 in994.6 mb 0.00 in0.0 mm 0.00 in0.0 mm 0.00 in0.0 mm
06:00 AM 18.2°F-7.7°C 14.2°F-9.9°C 84% Calm Calm 4.0 mph6.4 kmh 29.37 in994.6 mb 0.00 in0.0 mm 0.00 in0.0 mm 0.00 in0.0 mm
05:40 AM 17.7°F-7.9°C 14.0°F-10.0°C 85% Calm Calm -- 29.37 in994.6 mb 0.00 in0.0 mm 0.00 in0.0 mm 0.00 in0.0 mm
05:30 AM 17.4°F-8.1°C 13.9°F-10.1°C 86% Calm Calm -- 29.37 in994.6 mb 0.00 in0.0 mm 0.00 in0.0 mm 0.00 in0.0 mm
05:10 AM 17.4°F-8.1°C 13.9°F-10.1°C 86% Calm Calm -- 29.37 in994.6 mb 0.00 in0.0 mm 0.00 in0.0 mm 0.00 in0.0 mm
05:00 AM 17.3°F-8.2°C 14.1°F-9.9°C 87% Calm Calm -- 29.37 in994.6 mb 0.00 in0.0 mm 0.00 in0.0 mm 0.00 in0.0 mm
04:40 AM 17.0°F-8.3°C 13.8°F-10.1°C 87% Calm Calm -- 29.37 in994.6 mb 0.00 in0.0 mm 0.00 in0.0 mm 0.00 in0.0 mm
04:30 AM 16.7°F-8.5°C 13.5°F-10.3°C 87% Calm Calm -- 29.37 in994.6 mb 0.00 in0.0 mm 0.00 in0.0 mm 0.00 in0.0 mm
04:20 AM 16.3°F-8.7°C 12.9°F-10.6°C 86% Calm Calm -- 29.37 in994.6 mb 0.00 in0.0 mm 0.00 in0.0 mm 0.00 in0.0 mm
04:10 AM 16.5°F-8.6°C 13.1°F-10.5°C 86% Calm Calm -- 29.37 in994.6 mb 0.00 in0.0 mm 0.00 in0.0 mm 0.00 in0.0 mm
04:00 AM 16.7°F-8.5°C 13.3°F-10.4°C 86% Calm Calm -- 29.37 in994.6 mb 0.00 in0.0 mm 0.00 in0.0 mm 0.00 in0.0 mm
03:40 AM 17.4°F-8.1°C 13.7°F-10.2°C 85% Calm Calm -- 29.37 in994.6 mb 0.00 in0.0 mm 0.00 in0.0 mm 0.00 in0.0 mm
03:30 AM 17.8°F-7.9°C 14.3°F-9.8°C 86% Calm Calm -- 29.37 in994.6 mb 0.00 in0.0 mm 0.00 in0.0 mm 0.00 in0.0 mm
03:10 AM 17.3°F-8.2°C 14.9°F-9.5°C 90% Calm Calm -- 29.37 in994.6 mb 0.00 in0.0 mm 0.00 in0.0 mm 0.00 in0.0 mm
03:00 AM 17.2°F-8.2°C 14.8°F-9.6°C 90% Calm Calm -- 29.37 in994.6 mb 0.00 in0.0 mm 0.00 in0.0 mm 0.00 in0.0 mm
02:40 AM 16.6°F-8.6°C 13.9°F-10.1°C 89% Calm Calm -- 29.37 in994.6 mb 0.00 in0.0 mm 0.00 in0.0 mm 0.00 in0.0 mm
02:30 AM 16.8°F-8.4°C 13.9°F-10.1°C 88% Calm Calm -- 29.37 in994.6 mb 0.00 in0.0 mm 0.00 in0.0 mm 0.00 in0.0 mm
02:10 AM 17.4°F-8.1°C 13.9°F-10.1°C 86% Calm Calm -- 29.38 in994.9 mb 0.00 in0.0 mm 0.00 in0.0 mm 0.00 in0.0 mm
02:00 AM 18.2°F-7.7°C 15.3°F-9.3°C 88% Calm Calm -- 29.37 in994.6 mb 0.00 in0.0 mm 0.00 in0.0 mm 0.00 in0.0 mm
01:40 AM 17.8°F-7.9°C 14.9°F-9.5°C 88% Calm Calm -- 29.37 in994.6 mb 0.00 in0.0 mm 0.00 in0.0 mm 0.00 in0.0 mm
01:30 AM 18.4°F-7.6°C 15.2°F-9.3°C 87% Calm Calm -- 29.37 in994.6 mb 0.00 in0.0 mm 0.00 in0.0 mm 0.00 in0.0 mm
01:10 AM 19.4°F-7.0°C 16.4°F-8.7°C 88% Calm Calm 9.0 mph14.5 kmh 29.36 in994.2 mb 0.00 in0.0 mm 0.00 in0.0 mm 0.00 in0.0 mm
01:00 AM 18.8°F-7.3°C 16.4°F-8.7°C 90% 3.0 mph E4.8 kmh E 5.0 mph8.0 kmh 29.37 in994.6 mb 0.00 in0.0 mm 0.00 in0.0 mm 0.00 in0.0 mm
12:40 AM 18.5°F-7.5°C 16.1°F-8.8°C 90% Calm Calm 2.0 mph3.2 kmh 29.36 in994.2 mb 0.00 in0.0 mm 0.00 in0.0 mm 0.00 in0.0 mm
12:30 AM 18.8°F-7.3°C 16.4°F-8.7°C 90% Calm Calm -- 29.37 in994.6 mb 0.00 in0.0 mm 0.00 in0.0 mm 0.00 in0.0 mm
12:10 AM 19.7°F-6.8°C 17.5°F-8.1°C 91% Calm Calm -- 29.37 in994.6 mb 0.00 in0.0 mm 0.00 in0.0 mm 0.00 in0.0 mm
12:00 AM 19.2°F-7.1°C 17.0°F-8.3°C 91% Calm Calm -- 29.37 in994.6 mb 0.00 in0.0 mm 0.00 in0.0 mm 0.00 in0.0 mm